Time;durP1;ratioP1;P1;durP2;ratioP2;P2;SDS_P1;SDS_P2;PMS_P1;PMS_P2;Temp;Humidity;BMP_temperature;BMP_pressure;BME280_temperature;BME280_humidity;BME280_pressure;Samples;Min_cycle;Max_cycle;Signal;HPM_P1;HPM_P2
2022/06/23 00:01:01;;;;;;;10.35;5.17;;;;;;;14.23;60.57;99987.02;2151798;82;27751;-59
2022/06/23 00:04:03;;;;;;;9.70;4.75;;;;;;;14.20;60.29;99984.53;2150867;82;28728;-61
2022/06/23 00:07:24;;;;;;;10.53;5.30;;;;;;;14.17;60.29;99984.73;2151900;82;31438;-64
2022/06/23 00:10:39;;;;;;;7.85;5.17;;;;;;;14.12;60.60;99983.22;2114534;80;33160;-59
2022/06/23 00:13:40;;;;;;;10.08;5.25;;;;;;;14.09;60.58;99987.97;2132574;83;29384;-59
2022/06/23 00:16:44;;;;;;;12.10;5.58;;;;;;;14.04;60.78;99991.45;2131997;83;27729;-59
2022/06/23 00:19:52;;;;;;;8.53;5.20;;;;;;;13.99;60.85;99989.09;2132264;83;28811;-61
2022/06/23 00:23:01;;;;;;;11.65;6.15;;;;;;;13.96;61.09;99988.83;2131003;82;31031;-60
2022/06/23 00:26:28;;;;;;;11.15;5.35;;;;;;;13.92;61.39;99981.92;2102928;83;34687;-60
2022/06/23 00:29:33;;;;;;;9.23;5.00;;;;;;;13.90;61.47;99992.43;2141382;83;29719;-59
2022/06/23 00:32:33;;;;;;;7.03;4.97;;;;;;;13.87;61.52;99991.28;2141690;83;28229;-59
2022/06/23 00:35:34;;;;;;;9.08;4.97;;;;;;;13.84;61.58;99996.38;2141317;82;29045;-59
2022/06/23 00:38:38;;;;;;;8.58;4.83;;;;;;;13.81;61.75;99992.58;2141138;82;31895;-59
2022/06/23 00:41:41;;;;;;;6.90;4.85;;;;;;;13.79;61.84;99993.16;2118291;83;33802;-59
2022/06/23 00:45:13;;;;;;;8.23;5.28;;;;;;;13.76;62.05;100000.94;2081775;85;29702;-60
2022/06/23 00:48:32;;;;;;;9.55;5.53;;;;;;;13.73;62.09;100002.98;2106065;84;27621;-59
2022/06/23 00:51:42;;;;;;;7.78;4.87;;;;;;;13.70;62.16;100007.22;2105310;84;29062;-60
2022/06/23 00:54:48;;;;;;;9.18;5.55;;;;;;;13.66;62.29;100011.96;2105556;84;31223;-59
2022/06/23 00:57:59;;;;;;;10.45;5.65;;;;;;;13.61;62.59;100014.09;2105464;84;32967;-59
2022/06/23 01:01:18;;;;;;;9.00;5.45;;;;;;;13.60;62.77;100011.02;2136634;83;29269;-61
2022/06/23 01:04:51;;;;;;;8.93;5.40;;;;;;;13.57;62.91;100010.75;2073760;85;28447;-60
2022/06/23 01:08:05;;;;;;;8.55;5.37;;;;;;;13.54;62.88;100012.30;2079298;85;27807;-60
2022/06/23 01:11:24;;;;;;;11.75;4.95;;;;;;;13.50;63.01;100020.19;2090019;84;31241;-63
2022/06/23 01:14:41;;;;;;;9.33;5.17;;;;;;;13.47;62.99;100023.11;2072517;84;34251;-59
2022/06/23 01:17:48;;;;;;;7.45;5.30;;;;;;;13.44;63.23;100017.42;2073936;85;30534;-60
2022/06/23 01:21:00;;;;;;;13.35;5.53;;;;;;;13.40;63.21;100021.30;2035892;85;27758;-60
2022/06/23 01:24:16;;;;;;;12.28;5.05;;;;;;;13.37;63.24;100026.35;2045134;87;29838;-59
2022/06/23 01:27:26;;;;;;;6.30;4.80;;;;;;;13.35;63.33;100028.78;2017279;87;31147;-61
2022/06/23 01:30:35;;;;;;;9.05;4.90;;;;;;;13.32;63.39;100029.81;1989391;89;34077;-59
2022/06/23 01:33:50;;;;;;;10.58;4.97;;;;;;;13.29;63.53;100021.09;2000135;89;30075;-59
2022/06/23 01:37:28;;;;;;;8.40;5.15;;;;;;;13.26;63.59;100023.98;2000303;86;27712;-59
2022/06/23 01:40:46;;;;;;;11.53;5.25;;;;;;;13.22;63.75;100017.95;1988340;89;29086;-59
2022/06/23 01:44:12;;;;;;;10.65;5.12;;;;;;;13.19;63.87;100018.14;2006596;88;31625;-58
2022/06/23 01:47:38;;;;;;;8.53;5.80;;;;;;;13.15;64.00;100017.48;2003405;88;33689;-59
2022/06/23 01:50:53;;;;;;;8.20;5.72;;;;;;;13.12;64.12;100023.06;2021632;86;29515;-59
2022/06/23 01:54:27;;;;;;;9.15;5.15;;;;;;;13.09;64.23;100026.44;2027749;87;28049;-58
2022/06/23 01:57:36;;;;;;;9.83;5.97;;;;;;;13.05;64.18;100034.70;2027362;87;30829;-59
2022/06/23 02:00:40;;;;;;;8.00;5.65;;;;;;;13.01;64.39;100037.20;2027971;87;31691;-58
2022/06/23 02:03:44;;;;;;;10.58;5.40;;;;;;;12.98;64.47;100036.53;2027728;87;36841;-58
2022/06/23 02:07:01;;;;;;;10.00;4.83;;;;;;;12.95;64.53;100036.27;2053995;82;30699;-58
2022/06/23 02:10:23;;;;;;;10.30;5.53;;;;;;;12.91;64.69;100038.26;2146450;80;27695;-59
2022/06/23 02:13:32;;;;;;;10.80;6.05;;;;;;;12.90;64.84;100040.59;2094627;84;29111;-60
2022/06/23 02:16:58;;;;;;;9.18;5.55;;;;;;;12.89;64.99;100036.18;2103926;84;30440;-58
2022/06/23 02:20:04;;;;;;;9.18;4.85;;;;;;;12.88;65.32;100049.23;2141667;83;36851;-59
2022/06/23 02:23:32;;;;;;;8.13;4.70;;;;;;;12.91;65.56;100045.48;2140003;83;29500;-60
2022/06/23 02:27:11;;;;;;;12.47;5.70;;;;;;;12.89;65.55;100044.24;2139539;83;28195;-59
2022/06/23 02:30:21;;;;;;;8.38;5.15;;;;;;;12.89;65.72;100051.43;2103789;84;29094;-60
2022/06/23 02:33:28;;;;;;;8.93;5.83;;;;;;;12.88;65.48;100056.42;2103588;84;31031;-58
2022/06/23 02:37:09;;;;;;;8.80;5.53;;;;;;;12.86;65.62;100057.87;2103784;84;33758;-58
2022/06/23 02:40:30;;;;;;;6.20;5.20;;;;;;;12.87;65.64;100065.44;2137688;83;29729;-59
2022/06/23 02:43:43;;;;;;;7.03;5.03;;;;;;;12.83;65.66;100059.41;2141460;83;27684;-59
2022/06/23 02:47:05;;;;;;;6.92;5.00;;;;;;;12.81;65.77;100061.33;2141514;83;29082;-58
2022/06/23 02:50:25;;;;;;;12.58;5.92;;;;;;;12.82;65.84;100067.09;2141613;83;31422;-59
2022/06/23 02:53:54;;;;;;;9.10;5.33;;;;;;;12.81;65.92;100063.16;2141576;83;34116;-60
2022/06/23 02:57:16;;;;;;;7.10;4.67;;;;;;;12.82;66.12;100070.27;2141880;83;29695;-61
2022/06/23 03:00:23;;;;;;;8.73;5.17;;;;;;;12.82;66.08;100075.16;2081406;85;27670;-58
2022/06/23 03:03:51;;;;;;;8.95;4.85;;;;;;;12.84;66.13;100075.05;2141655;83;29841;-59
2022/06/23 03:07:11;;;;;;;10.03;5.47;;;;;;;12.85;66.17;100076.31;2140166;83;33055;-60
2022/06/23 03:10:29;;;;;;;8.45;4.87;;;;;;;12.88;66.25;100084.19;2141226;80;34021;-62
2022/06/23 03:13:54;;;;;;;9.55;5.25;;;;;;;12.91;66.33;100082.62;2140907;82;29745;-61
2022/06/23 03:17:16;;;;;;;10.70;5.87;;;;;;;12.96;66.52;100088.20;2081934;85;27700;-60
2022/06/23 03:20:29;;;;;;;7.97;5.15;;;;;;;13.00;66.81;100093.77;2098698;84;29901;-59
2022/06/23 03:23:42;;;;;;;5.85;4.83;;;;;;;13.05;66.54;100095.70;2138300;83;31037;-61
2022/06/23 03:26:52;;;;;;;12.88;5.33;;;;;;;13.11;66.70;100102.02;2101460;84;34173;-60
2022/06/23 03:30:22;;;;;;;7.45;5.50;;;;;;;13.17;66.68;100099.41;2101507;84;29316;-59
2022/06/23 03:33:43;;;;;;;11.73;5.80;;;;;;;13.25;66.71;100106.98;2100321;84;27689;-59
2022/06/23 03:36:52;;;;;;;12.00;5.70;;;;;;;13.33;66.91;100106.88;2099989;84;28651;-59
2022/06/23 03:43:29;;;;;;;7.45;5.78;;;;;;;13.48;66.79;100111.80;2036141;87;34184;-59
2022/06/23 03:46:54;;;;;;;10.13;5.85;;;;;;;13.58;66.83;100112.53;2004646;86;30452;-59
2022/06/23 03:50:16;;;;;;;10.70;6.53;;;;;;;13.67;66.86;100115.98;2007185;88;27810;-59
2022/06/23 03:53:28;;;;;;;12.63;5.95;;;;;;;13.77;66.88;100115.75;2005197;88;29063;-60
2022/06/23 03:56:38;;;;;;;11.75;6.50;;;;;;;13.89;66.72;100117.27;2005184;88;32020;-59
2022/06/23 04:00:02;;;;;;;12.70;5.85;;;;;;;13.97;66.59;100117.59;2017477;87;32977;-61
2022/06/23 04:03:24;;;;;;;8.08;5.30;;;;;;;14.09;66.44;100118.61;2015035;84;29719;-64
2022/06/23 04:06:37;;;;;;;13.13;5.28;;;;;;;14.22;66.44;100114.12;2110719;84;27707;-60
2022/06/23 04:09:38;;;;;;;11.55;5.33;;;;;;;14.36;66.20;100120.39;2141163;82;28646;-60
2022/06/23 04:12:51;;;;;;;5.92;4.33;;;;;;;14.48;66.25;100112.80;2150537;82;31157;-60
2022/06/23 04:15:54;;;;;;;7.50;5.12;;;;;;;14.61;66.00;100123.59;2150393;82;33816;-62
2022/06/23 04:18:55;;;;;;;8.63;4.47;;;;;;;14.74;65.72;100120.45;2150527;82;29314;-60
2022/06/23 04:22:05;;;;;;;10.28;5.17;;;;;;;14.87;65.55;100120.45;2150628;82;27661;-63
2022/06/23 04:25:15;;;;;;;8.45;4.72;;;;;;;15.01;65.43;100125.36;2150080;82;30815;-59
2022/06/23 04:28:25;;;;;;;6.83;4.80;;;;;;;15.15;65.19;100131.97;2150561;82;31912;-59
2022/06/23 04:31:34;;;;;;;9.95;4.55;;;;;;;15.30;65.01;100129.17;2134706;82;33768;-60
2022/06/23 04:34:53;;;;;;;7.87;5.45;;;;;;;15.45;64.71;100133.45;2150119;82;29457;-60
2022/06/23 04:38:17;;;;;;;6.40;4.45;;;;;;;15.60;64.56;100138.20;2150550;82;28140;-59
2022/06/23 04:41:29;;;;;;;6.65;4.80;;;;;;;15.84;64.42;100144.12;2150311;82;29855;-59
2022/06/23 04:44:33;;;;;;;10.70;4.85;;;;;;;16.15;64.38;100140.50;2150067;82;32274;-59
2022/06/23 04:47:35;;;;;;;8.13;5.03;;;;;;;16.38;63.97;100144.66;2150602;82;32723;-59
2022/06/23 04:50:51;;;;;;;8.25;4.42;;;;;;;17.20;64.82;100145.05;2150384;82;29729;-60
2022/06/23 04:54:13;;;;;;;8.40;3.95;;;;;;;18.82;64.01;100152.95;2149957;82;27617;-60
2022/06/23 04:57:22;;;;;;;10.95;4.40;;;;;;;20.64;62.11;100145.70;2149913;82;30738;-60
2022/06/23 05:00:29;;;;;;;10.32;4.92;;;;;;;22.45;59.83;100140.31;2150276;82;31872;-60
2022/06/23 05:03:38;;;;;;;6.53;4.37;;;;;;;24.02;58.12;100144.95;2150556;81;33060;-60
2022/06/23 05:06:43;;;;;;;5.15;4.25;;;;;;;25.43;54.92;100147.09;2150372;82;29387;-60
2022/06/23 05:09:45;;;;;;;9.60;4.10;;;;;;;26.42;53.55;100146.54;2150606;82;27715;-60
2022/06/23 05:12:52;;;;;;;8.23;4.45;;;;;;;27.41;52.20;100144.70;2140665;82;28626;-60
2022/06/23 05:16:06;;;;;;;9.40;4.60;;;;;;;28.35;50.81;100148.62;2132498;83;31054;-60
2022/06/23 05:19:19;;;;;;;7.10;4.75;;;;;;;29.37;49.20;100156.11;2132307;83;32743;-63
2022/06/23 05:22:34;;;;;;;11.25;4.40;;;;;;;30.31;47.02;100148.20;2092417;85;29348;-60
2022/06/23 05:25:42;;;;;;;5.55;3.75;;;;;;;31.19;45.34;100153.20;2048221;86;28231;-60
2022/06/23 05:28:44;;;;;;;6.55;4.10;;;;;;;31.82;43.79;100159.20;2105440;84;28652;-61
2022/06/23 05:31:51;;;;;;;9.83;4.35;;;;;;;32.32;42.47;100156.28;2113531;83;31867;-60
2022/06/23 05:35:04;;;;;;;10.05;4.12;;;;;;;32.75;40.49;100164.38;2141150;83;32390;-60
2022/06/23 05:38:17;;;;;;;6.97;4.17;;;;;;;33.17;39.56;100158.56;2081810;85;30588;-63
2022/06/23 05:41:27;;;;;;;5.25;3.37;;;;;;;33.60;37.79;100162.39;2105179;84;27656;-61
2022/06/23 05:44:35;;;;;;;7.15;4.03;;;;;;;34.08;36.97;100161.25;2132272;83;29078;-60
2022/06/23 05:47:38;;;;;;;6.92;4.40;;;;;;;34.45;35.81;100165.86;2110581;84;31042;-61
2022/06/23 05:51:02;;;;;;;5.37;3.58;;;;;;;34.51;34.39;100159.36;2141048;83;32776;-60
2022/06/23 05:54:29;;;;;;;8.23;3.33;;;;;;;34.41;34.50;100166.03;2132369;83;28759;-61
2022/06/23 05:57:40;;;;;;;6.92;3.83;;;;;;;34.48;33.74;100164.00;2102367;84;27692;-60
2022/06/23 06:00:53;;;;;;;7.10;3.90;;;;;;;34.65;33.19;100170.56;2101095;84;29464;-59
2022/06/23 06:04:03;;;;;;;5.55;3.45;;;;;;;34.92;32.69;100170.09;2100275;84;31362;-59
2022/06/23 06:07:05;;;;;;;9.48;3.87;;;;;;;35.27;31.88;100174.84;2099776;84;34210;-59
2022/06/23 06:10:15;;;;;;;10.70;4.35;;;;;;;35.68;31.64;100174.08;2076538;84;29131;-59
2022/06/23 06:13:25;;;;;;;8.43;3.55;;;;;;;36.18;30.25;100178.16;2077299;84;27738;-73
2022/06/23 06:16:27;;;;;;;6.60;3.17;;;;;;;36.36;30.37;100177.11;2102190;84;28672;-60
2022/06/23 06:19:32;;;;;;;5.42;3.00;;;;;;;36.76;29.50;100178.09;2102290;84;31964;-60
2022/06/23 06:22:59;;;;;;;8.15;2.65;;;;;;;36.96;28.09;100176.20;2101060;84;32627;-60
2022/06/23 06:26:01;;;;;;;6.00;2.90;;;;;;;37.16;28.47;100186.00;2100509;84;29169;-60
2022/06/23 06:29:14;;;;;;;6.15;2.72;;;;;;;37.46;27.15;100189.82;2100303;84;27543;-60
2022/06/23 06:32:34;;;;;;;4.85;2.75;;;;;;;37.66;27.42;100184.18;2100820;84;28719;-62
2022/06/23 06:35:41;;;;;;;5.58;2.80;;;;;;;38.13;26.72;100189.80;2101807;84;31904;-60
2022/06/23 06:38:42;;;;;;;8.05;2.85;;;;;;;38.50;26.48;100188.23;2073740;84;33001;-60
2022/06/23 06:42:05;;;;;;;7.87;2.90;;;;;;;38.86;26.07;100190.83;2101701;84;29319;-60
2022/06/23 06:45:29;;;;;;;5.33;3.15;;;;;;;39.23;25.55;100186.84;2102161;84;27661;-60
2022/06/23 06:48:36;;;;;;;5.60;3.17;;;;;;;39.33;24.56;100185.55;2095790;84;28671;-59
2022/06/23 06:51:37;;;;;;;11.33;3.50;;;;;;;39.47;24.67;100183.95;2093896;84;31238;-60
2022/06/23 06:54:48;;;;;;;3.95;3.30;;;;;;;39.66;24.26;100189.91;2080808;85;32497;-61
2022/06/23 06:58:14;;;;;;;6.30;3.20;;;;;;;39.74;23.93;100191.38;2080354;85;30413;-61
2022/06/23 07:01:25;;;;;;;5.30;3.20;;;;;;;39.96;23.40;100195.95;2077516;85;27813;-65
2022/06/23 07:04:38;;;;;;;4.37;2.90;;;;;;;40.05;23.10;100196.25;2110964;84;28705;-61
2022/06/23 07:07:43;;;;;;;7.75;3.72;;;;;;;40.04;22.46;100197.37;2107979;84;32232;-60
2022/06/23 07:10:52;;;;;;;7.28;3.30;;;;;;;39.80;22.70;100193.09;2110845;84;33208;-60
2022/06/23 07:14:06;;;;;;;5.95;3.30;;;;;;;39.60;23.09;100200.84;2054122;85;30078;-61
2022/06/23 07:17:27;;;;;;;11.55;3.83;;;;;;;39.54;22.52;100196.88;2139442;82;27719;-60
2022/06/23 07:20:57;;;;;;;5.97;3.10;;;;;;;39.48;22.56;100204.40;2082841;85;29068;-61
2022/06/23 07:24:41;;;;;;;5.83;3.10;;;;;;;39.37;21.93;100209.13;2114325;84;31592;-60
2022/06/23 07:27:56;;;;;;;7.37;3.80;;;;;;;39.44;22.57;100211.69;2118974;84;32229;-60
2022/06/23 07:31:03;;;;;;;5.62;2.90;;;;;;;39.66;22.49;100213.74;2118550;84;30518;-60
2022/06/23 07:34:07;;;;;;;5.55;2.40;;;;;;;39.87;22.51;100215.27;2048295;85;27670;-60
2022/06/23 07:37:29;;;;;;;6.62;2.37;;;;;;;40.04;22.29;100219.81;2049455;86;28734;-61
2022/06/23 07:40:36;;;;;;;9.35;2.50;;;;;;;40.12;21.87;100226.31;2080543;85;31480;-60
2022/06/23 07:43:49;;;;;;;3.55;3.12;;;;;;;40.29;21.46;100227.49;2081394;85;33422;-63
2022/06/23 07:46:50;;;;;;;7.25;2.72;;;;;;;40.29;20.87;100226.66;2126496;82;29695;-61
2022/06/23 07:49:52;;;;;;;3.83;2.42;;;;;;;39.84;20.78;100218.62;2148489;82;27680;-61
2022/06/23 07:52:54;;;;;;;4.78;2.47;;;;;;;39.78;20.84;100214.13;2142588;82;28618;-60
2022/06/23 07:55:58;;;;;;;6.97;2.37;;;;;;;39.89;20.89;100217.79;2137670;82;31528;-60
2022/06/23 07:59:10;;;;;;;5.15;2.40;;;;;;;40.00;20.14;100219.53;2136867;83;33333;-59
2022/06/23 08:02:33;;;;;;;5.85;2.20;;;;;;;39.88;20.50;100216.13;2114633;82;30634;-60
2022/06/23 08:05:43;;;;;;;5.22;2.37;;;;;;;39.89;19.74;100222.00;2148364;82;27725;-60
2022/06/23 08:08:45;;;;;;;3.85;2.33;;;;;;;39.62;20.22;100212.63;2148413;82;28872;-60
2022/06/23 08:18:44;;;;;;;5.17;1.60;;;;;;;39.35;19.56;100225.38;2136824;83;30391;-60
2022/06/23 08:21:57;;;;;;;2.25;2.00;;;;;;;39.41;19.65;100224.84;2136928;82;27675;-59
2022/06/23 08:25:03;;;;;;;4.80;1.92;;;;;;;39.66;19.80;100222.73;2148021;82;28703;-60
2022/06/23 08:28:05;;;;;;;2.10;1.60;;;;;;;39.76;19.27;100224.20;2148161;82;31156;-59
2022/06/23 08:31:06;;;;;;;4.47;2.00;;;;;;;39.82;19.25;100227.03;2121146;82;33329;-60
2022/06/23 08:34:09;;;;;;;3.00;2.00;;;;;;;39.70;18.89;100220.22;2139410;82;29323;-60
2022/06/23 08:37:22;;;;;;;2.27;2.00;;;;;;;39.70;19.52;100226.69;2136878;83;27680;-60
2022/06/23 08:41:12;;;;;;;2.33;2.02;;;;;;;39.66;18.82;100227.77;2136819;83;28648;-60
2022/06/23 08:44:42;;;;;;;2.83;1.80;;;;;;;39.72;18.51;100229.20;2145420;82;31032;-60
2022/06/23 08:47:51;;;;;;;2.27;2.05;;;;;;;39.22;18.44;100223.84;2140342;82;33086;-60
2022/06/23 08:51:24;;;;;;;2.90;1.87;;;;;;;39.18;18.78;100224.95;2083890;85;29742;-59
2022/06/23 08:55:23;;;;;;;4.65;2.00;;;;;;;39.00;18.97;100218.38;2113375;84;27792;-59
2022/06/23 08:58:39;;;;;;;4.03;1.92;;;;;;;38.69;18.31;100218.92;2112410;84;30029;-60
2022/06/23 09:01:49;;;;;;;4.12;2.12;;;;;;;38.09;18.50;100216.07;2075899;85;31046;-60
2022/06/23 09:05:11;;;;;;;3.37;2.08;;;;;;;37.58;18.67;100216.80;2047955;85;33862;-60
2022/06/23 09:08:41;;;;;;;13.25;5.30;;;;;;;37.38;18.65;100211.18;2046436;87;28914;-59
2022/06/23 09:12:06;;;;;;;5.50;2.00;;;;;;;37.04;19.37;100207.91;2046767;85;27752;-61
2022/06/23 09:15:35;;;;;;;7.45;2.08;;;;;;;36.87;19.16;100212.61;2046695;87;29108;-61
2022/06/23 09:18:56;;;;;;;2.52;2.17;;;;;;;36.59;19.84;100212.43;2046654;87;31033;-60
2022/06/23 09:22:46;;;;;;;4.97;2.37;;;;;;;36.60;19.96;100208.54;2046322;85;33541;-61
2022/06/23 09:26:23;;;;;;;5.15;2.05;;;;;;;36.64;20.29;100206.08;2075892;85;28683;-59
2022/06/23 09:29:56;;;;;;;4.20;2.02;;;;;;;36.44;20.04;100198.17;2076094;84;27780;-64
2022/06/23 09:33:08;;;;;;;5.97;1.70;;;;;;;36.12;20.14;100203.71;2066863;85;29500;-59
2022/06/23 09:36:33;;;;;;;5.08;2.10;;;;;;;35.61;19.89;100204.88;2046710;87;31437;-59
2022/06/23 09:40:12;;;;;;;2.47;1.80;;;;;;;35.24;20.11;100208.77;2108695;84;32842;-60
2022/06/23 09:43:38;;;;;;;9.00;2.02;;;;;;;35.03;20.33;100215.77;2116426;83;29732;-59
2022/06/23 09:47:37;;;;;;;11.55;2.17;;;;;;;34.60;20.21;100214.11;2120089;84;27763;-61
2022/06/23 09:51:18;;;;;;;5.22;1.80;;;;;;;34.23;20.98;100214.50;2115870;83;30014;-60
2022/06/23 09:54:38;;;;;;;3.35;1.98;;;;;;;34.10;21.52;100213.30;2115745;84;32316;-62
2022/06/23 09:57:50;;;;;;;3.87;1.80;;;;;;;34.05;21.54;100222.88;2115976;84;33373;-63
2022/06/23 10:01:10;;;;;;;4.00;1.85;;;;;;;33.81;21.32;100221.88;2147708;81;29690;-60
2022/06/23 10:04:44;;;;;;;5.20;2.00;;;;;;;33.50;21.48;100219.56;2113450;82;27741;-60
2022/06/23 10:08:15;;;;;;;3.05;1.62;;;;;;;33.05;20.98;100222.86;2071759;85;28813;-59
2022/06/23 10:11:40;;;;;;;3.65;2.12;;;;;;;32.57;21.62;100217.33;1983597;89;31224;-60
2022/06/23 10:14:47;;;;;;;3.02;1.57;;;;;;;32.37;22.16;100213.31;1985427;89;33383;-60
2022/06/23 10:18:19;;;;;;;3.98;1.60;;;;;;;32.28;22.38;100217.72;1986143;88;29476;-60
2022/06/23 10:21:41;;;;;;;2.92;1.98;;;;;;;32.27;22.09;100216.56;1985587;88;28193;-59
2022/06/23 10:25:16;;;;;;;3.58;1.52;;;;;;;31.93;22.69;100217.23;2017872;88;29863;-60
2022/06/23 10:28:54;;;;;;;3.80;1.70;;;;;;;31.76;22.60;100221.05;2016878;88;32451;-59
2022/06/23 10:32:32;;;;;;;1.67;1.57;;;;;;;31.29;22.67;100212.27;2014501;88;33291;-60
2022/06/23 10:35:59;;;;;;;2.77;1.90;;;;;;;31.06;23.22;100204.39;1967733;90;29398;-59
2022/06/23 10:39:24;;;;;;;3.50;1.70;;;;;;;30.76;23.26;100200.16;1996121;89;27736;-59
2022/06/23 10:42:48;;;;;;;2.40;1.87;;;;;;;30.76;24.20;100206.21;2046113;84;29234;-60
2022/06/23 10:46:07;;;;;;;8.70;1.57;;;;;;;30.74;24.42;100198.14;2147786;82;31002;-60
2022/06/23 10:49:31;;;;;;;2.67;1.60;;;;;;;30.59;24.15;100197.49;2064285;84;33103;-61
2022/06/23 10:52:53;;;;;;;4.78;1.98;;;;;;;30.42;24.46;100196.48;2061875;86;30079;-67
2022/06/23 10:56:11;;;;;;;3.00;1.62;;;;;;;30.20;24.64;100193.00;2052976;86;28216;-59
2022/06/23 10:59:43;;;;;;;2.45;1.87;;;;;;;30.11;24.84;100196.52;2052528;86;29074;-59
2022/06/23 11:03:17;;;;;;;2.70;1.90;;;;;;;29.99;25.32;100190.73;2058162;86;31402;-59
2022/06/23 11:06:26;;;;;;;2.22;1.55;;;;;;;29.99;25.39;100195.39;2066039;85;35941;-60
2022/06/23 11:09:50;;;;;;;2.65;1.87;;;;;;;29.90;25.01;100193.31;2066208;86;30489;-60
2022/06/23 11:13:03;;;;;;;1.57;1.40;;;;;;;29.74;25.31;100196.43;2046486;86;27821;-59
2022/06/23 11:16:33;;;;;;;3.05;1.57;;;;;;;29.67;26.02;100190.88;2052784;86;29943;-59
2022/06/23 11:19:57;;;;;;;2.35;1.50;;;;;;;29.67;25.66;100190.88;2052886;86;32105;-59
2022/06/23 11:23:28;;;;;;;2.90;1.72;;;;;;;29.67;26.16;100193.64;2058631;86;33574;-60
2022/06/23 11:27:03;;;;;;;3.45;1.60;;;;;;;29.64;25.91;100194.91;2137300;82;29334;-58
2022/06/23 11:30:22;;;;;;;3.62;1.75;;;;;;;29.64;26.04;100185.76;2155099;82;27798;-60
2022/06/23 11:33:54;;;;;;;5.15;1.80;;;;;;;29.47;25.76;100183.34;2149209;82;29624;-60
2022/06/23 11:37:14;;;;;;;3.15;1.67;;;;;;;29.24;26.45;100180.33;1991405;89;30866;-61
2022/06/23 11:40:26;;;;;;;2.70;1.80;;;;;;;29.20;26.61;100179.02;1991680;89;33352;-60
2022/06/23 11:44:08;;;;;;;3.55;1.60;;;;;;;29.19;26.97;100177.86;1968935;89;29196;-61
2022/06/23 11:47:21;;;;;;;3.85;2.10;;;;;;;29.25;26.88;100187.55;2024542;86;27735;-60
2022/06/23 11:50:49;;;;;;;7.62;1.72;;;;;;;29.21;26.96;100177.09;2035266;87;28568;-59
2022/06/23 11:54:16;;;;;;;2.95;1.70;;;;;;;29.12;26.95;100176.44;2034702;87;31440;-60
2022/06/23 11:58:03;;;;;;;2.47;1.65;;;;;;;29.11;26.97;100170.05;2063991;86;33354;-60
2022/06/23 12:01:18;;;;;;;2.70;1.90;;;;;;;29.11;27.10;100169.20;2034783;87;29384;-61
2022/06/23 12:04:50;;;;;;;2.02;1.82;;;;;;;29.05;26.56;100163.11;2033128;87;27791;-66
2022/06/23 12:08:31;;;;;;;3.40;1.80;;;;;;;28.89;26.69;100160.11;2032510;87;30060;-59
2022/06/23 12:11:34;;;;;;;3.08;1.62;;;;;;;28.82;27.23;100170.25;2041485;85;32445;-61
2022/06/23 12:14:37;;;;;;;3.92;1.60;;;;;;;28.82;27.48;100173.02;2078007;85;33333;-60
2022/06/23 12:17:47;;;;;;;2.05;1.60;;;;;;;28.85;27.71;100174.00;2077995;85;30136;-61
2022/06/23 12:21:06;;;;;;;3.22;1.70;;;;;;;28.85;27.41;100176.75;2077609;85;27663;-61
2022/06/23 12:24:36;;;;;;;4.67;1.80;;;;;;;28.75;26.87;100176.56;2079115;85;29162;-60
2022/06/23 12:27:45;;;;;;;1.80;1.37;;;;;;;28.68;27.05;100178.39;2080110;85;32267;-59
2022/06/23 12:30:58;;;;;;;2.05;1.10;;;;;;;28.62;27.10;100177.28;2147724;82;34175;-64
2022/06/23 12:34:21;;;;;;;4.15;1.62;;;;;;;28.61;27.41;100174.70;2145036;82;30099;-65
2022/06/23 12:37:54;;;;;;;3.10;1.52;;;;;;;28.47;26.90;100176.48;2080226;84;27763;-63
2022/06/23 12:41:09;;;;;;;3.62;1.90;;;;;;;28.38;27.17;100171.62;2080048;85;28657;-64
2022/06/23 12:44:31;;;;;;;2.58;1.60;;;;;;;28.40;27.07;100168.69;2116271;84;31824;-63
2022/06/23 12:48:13;;;;;;;2.12;1.60;;;;;;;28.41;27.39;100164.88;2115871;83;32962;-64
2022/06/23 12:51:49;;;;;;;2.10;1.60;;;;;;;28.44;27.13;100169.47;2116016;84;29342;-65
2022/06/23 12:55:21;;;;;;;2.00;1.35;;;;;;;28.41;27.08;100160.75;2022689;87;28336;-65
2022/06/23 12:58:39;;;;;;;3.08;1.70;;;;;;;28.40;27.10;100166.77;2027696;86;29546;-65
2022/06/23 13:01:55;;;;;;;1.67;1.57;;;;;;;28.34;27.13;100162.06;2027797;87;31194;-66
2022/06/23 13:05:23;;;;;;;2.10;1.27;;;;;;;28.31;26.93;100165.20;2031238;86;33035;-65
2022/06/23 13:08:42;;;;;;;2.75;1.30;;;;;;;28.28;27.03;100163.70;2032303;87;29464;-66
2022/06/23 13:12:10;;;;;;;5.75;1.77;;;;;;;28.27;27.03;100151.48;2032358;87;27759;-65
2022/06/23 13:15:38;;;;;;;3.70;1.92;;;;;;;28.29;27.26;100154.91;1993656;87;28666;-65
2022/06/23 13:18:50;;;;;;;1.82;1.70;;;;;;;28.28;27.32;100153.20;1993118;86;31093;-66
2022/06/23 13:21:52;;;;;;;3.15;1.80;;;;;;;28.20;27.18;100151.42;2024185;86;32992;-65
2022/06/23 13:24:55;;;;;;;2.55;1.67;;;;;;;28.18;27.60;100145.25;2072286;84;29334;-67
2022/06/23 13:27:58;;;;;;;2.37;1.52;;;;;;;28.18;27.61;100141.13;2072808;84;27837;-69
2022/06/23 13:31:12;;;;;;;2.93;1.77;;;;;;;28.21;27.38;100142.11;2087650;83;28667;-69
2022/06/23 13:34:19;;;;;;;2.77;1.80;;;;;;;28.21;27.38;100142.11;2117024;83;31042;-66
2022/06/23 13:37:26;;;;;;;3.47;1.62;;;;;;;28.17;27.70;100136.16;2147592;82;33818;-65
2022/06/23 13:40:44;;;;;;;3.15;1.90;;;;;;;28.20;27.63;100140.41;2147624;81;29335;-66
2022/06/23 13:44:15;;;;;;;4.50;1.40;;;;;;;28.18;27.45;100127.35;2147658;81;27806;-65
2022/06/23 13:47:21;;;;;;;6.58;1.90;;;;;;;28.20;27.77;100117.86;2147867;82;28659;-65
2022/06/23 13:50:37;;;;;;;3.58;1.52;;;;;;;28.23;27.49;100125.37;2144855;82;31851;-65
2022/06/23 13:54:02;;;;;;;2.10;1.35;;;;;;;28.22;27.80;100132.80;2145230;83;33824;-64
2022/06/23 13:57:24;;;;;;;2.65;1.85;;;;;;;28.16;27.52;100126.69;2144922;81;29486;-66
2022/06/23 14:00:34;;;;;;;3.10;1.92;;;;;;;28.13;27.73;100129.33;2115789;83;27812;-65
2022/06/23 14:03:44;;;;;;;4.45;2.50;;;;;;;28.10;27.62;100130.25;2144869;82;28665;-65
2022/06/23 14:06:53;;;;;;;2.77;1.62;;;;;;;28.08;27.65;100128.18;2145123;83;31108;-64
2022/06/23 14:10:00;;;;;;;2.70;1.30;;;;;;;28.07;27.74;100126.47;2144893;83;33041;-67
2022/06/23 14:13:19;;;;;;;2.98;1.72;;;;;;;28.10;28.22;100126.95;2114824;83;29320;-64
2022/06/23 14:16:52;;;;;;;3.58;1.80;;;;;;;28.09;27.62;100128.51;1994311;88;27741;-67
2022/06/23 14:20:15;;;;;;;2.67;1.45;;;;;;;28.05;27.70;100119.77;2015528;87;29541;-66
2022/06/23 14:23:46;;;;;;;3.62;1.45;;;;;;;28.04;27.57;100112.04;2015838;88;31860;-67
2022/06/23 14:26:51;;;;;;;4.45;1.45;;;;;;;28.08;27.53;100111.11;2015925;86;33817;-66
2022/06/23 14:30:10;;;;;;;1.95;1.45;;;;;;;28.09;27.60;100111.44;2015674;87;29456;-71
2022/06/23 14:33:25;;;;;;;8.90;2.05;;;;;;;28.10;27.48;100107.67;2037524;86;27678;-67
2022/06/23 14:36:40;;;;;;;4.03;1.60;;;;;;;28.09;27.83;100108.69;1983659;88;28720;-64
2022/06/23 14:39:49;;;;;;;2.33;1.42;;;;;;;28.11;27.62;100117.64;1955513;89;31851;-66
2022/06/23 14:43:17;;;;;;;3.15;1.85;;;;;;;28.14;27.55;100111.75;1955243;91;32998;-64
2022/06/23 14:46:39;;;;;;;3.75;1.60;;;;;;;28.15;27.64;100108.45;2019276;88;29353;-63
2022/06/23 14:49:57;;;;;;;6.47;1.62;;;;;;;28.11;27.86;100106.62;2013691;88;28121;-67
2022/06/23 14:53:07;;;;;;;4.53;1.55;;;;;;;28.09;27.63;100093.55;1996649;87;28726;-64
2022/06/23 14:56:35;;;;;;;3.10;1.50;;;;;;;28.10;27.34;100099.95;2043006;87;31075;-65
2022/06/23 14:59:54;;;;;;;5.90;1.57;;;;;;;28.04;27.73;100093.30;2043067;87;33751;-70
2022/06/23 15:03:07;;;;;;;2.35;1.50;;;;;;;28.00;27.57;100093.36;2042873;87;29468;-63
2022/06/23 15:06:14;;;;;;;5.55;1.57;;;;;;;27.97;27.31;100096.50;2080789;85;27727;-70
2022/06/23 15:09:50;;;;;;;2.95;1.60;;;;;;;27.88;27.44;100089.72;2078778;84;29752;-63
2022/06/23 15:13:30;;;;;;;1.85;1.55;;;;;;;27.88;27.51;100088.89;2041521;87;31067;-66
2022/06/23 15:16:39;;;;;;;6.20;1.60;;;;;;;27.88;27.64;100085.59;2042161;87;33770;-66
2022/06/23 15:20:06;;;;;;;1.80;1.40;;;;;;;27.85;27.64;100090.14;2058971;86;30105;-65
2022/06/23 15:23:31;;;;;;;5.25;1.75;;;;;;;27.85;27.63;100086.02;2057940;86;27757;-67
2022/06/23 15:26:37;;;;;;;10.28;2.75;;;;;;;27.85;27.87;100079.63;2058434;86;29431;-65